sensor_id;sensor_type;location;lat;lon;timestamp;P1;durP1;ratioP1;P2;durP2;ratioP2
41101;SDS011;26845;50.190;19.178;2022-11-20T00:01:23;118.82;;;51.40;;
41101;SDS011;26845;50.190;19.178;2022-11-20T00:03:53;140.12;;;55.92;;
41101;SDS011;26845;50.190;19.178;2022-11-20T00:06:22;148.95;;;59.27;;
41101;SDS011;26845;50.190;19.178;2022-11-20T00:08:50;144.82;;;60.67;;
41101;SDS011;26845;50.190;19.178;2022-11-20T00:11:22;145.12;;;61.25;;
41101;SDS011;26845;50.190;19.178;2022-11-20T00:13:49;107.00;;;47.17;;
41101;SDS011;26845;50.190;19.178;2022-11-20T00:16:19;103.42;;;48.20;;
41101;SDS011;26845;50.190;19.178;2022-11-20T00:18:49;130.50;;;55.90;;
41101;SDS011;26845;50.190;19.178;2022-11-20T00:21:20;137.45;;;57.45;;
41101;SDS011;26845;50.190;19.178;2022-11-20T00:23:50;135.90;;;55.03;;
41101;SDS011;26845;50.190;19.178;2022-11-20T00:26:20;143.00;;;60.50;;
41101;SDS011;26845;50.190;19.178;2022-11-20T00:28:59;127.65;;;56.37;;
41101;SDS011;26845;50.190;19.178;2022-11-20T00:31:28;130.25;;;53.83;;
41101;SDS011;26845;50.190;19.178;2022-11-20T00:33:56;138.60;;;57.53;;
41101;SDS011;26845;50.190;19.178;2022-11-20T00:36:24;137.68;;;58.15;;
41101;SDS011;26845;50.190;19.178;2022-11-20T00:38:54;125.22;;;51.48;;
41101;SDS011;26845;50.190;19.178;2022-11-20T00:41:25;120.08;;;50.80;;
41101;SDS011;26845;50.190;19.178;2022-11-20T00:43:54;126.97;;;54.20;;
41101;SDS011;26845;50.190;19.178;2022-11-20T00:46:23;131.75;;;54.85;;
41101;SDS011;26845;50.190;19.178;2022-11-20T00:48:52;142.55;;;56.37;;
41101;SDS011;26845;50.190;19.178;2022-11-20T00:51:23;149.80;;;60.85;;
41101;SDS011;26845;50.190;19.178;2022-11-20T00:53:54;146.75;;;59.80;;
41101;SDS011;26845;50.190;19.178;2022-11-20T00:56:24;139.55;;;59.48;;
41101;SDS011;26845;50.190;19.178;2022-11-20T00:58:50;148.95;;;60.50;;
41101;SDS011;26845;50.190;19.178;2022-11-20T01:01:21;149.10;;;63.25;;
41101;SDS011;26845;50.190;19.178;2022-11-20T01:03:51;144.47;;;61.23;;
41101;SDS011;26845;50.190;19.178;2022-11-20T01:06:20;155.22;;;64.90;;
41101;SDS011;26845;50.190;19.178;2022-11-20T01:09:00;147.30;;;61.05;;
41101;SDS011;26845;50.190;19.178;2022-11-20T01:11:33;158.52;;;66.67;;
41101;SDS011;26845;50.190;19.178;2022-11-20T01:14:11;148.32;;;61.70;;
41101;SDS011;26845;50.190;19.178;2022-11-20T01:16:43;144.32;;;58.52;;
41101;SDS011;26845;50.190;19.178;2022-11-20T01:19:16;144.90;;;62.45;;
41101;SDS011;26845;50.190;19.178;2022-11-20T01:21:48;143.62;;;62.38;;
41101;SDS011;26845;50.190;19.178;2022-11-20T01:24:19;140.57;;;60.70;;
41101;SDS011;26845;50.190;19.178;2022-11-20T01:26:48;148.10;;;61.92;;
41101;SDS011;26845;50.190;19.178;2022-11-20T01:29:17;130.37;;;57.98;;
41101;SDS011;26845;50.190;19.178;2022-11-20T01:31:48;135.25;;;59.33;;
41101;SDS011;26845;50.190;19.178;2022-11-20T01:34:16;135.15;;;57.60;;
41101;SDS011;26845;50.190;19.178;2022-11-20T01:36:45;142.32;;;60.25;;
41101;SDS011;26845;50.190;19.178;2022-11-20T01:39:14;139.37;;;60.67;;
41101;SDS011;26845;50.190;19.178;2022-11-20T01:41:44;149.05;;;60.03;;
41101;SDS011;26845;50.190;19.178;2022-11-20T01:47:27;135.43;;;54.55;;
41101;SDS011;26845;50.190;19.178;2022-11-20T01:50:04;145.97;;;62.05;;
41101;SDS011;26845;50.190;19.178;2022-11-20T01:52:42;157.67;;;66.50;;
41101;SDS011;26845;50.190;19.178;2022-11-20T01:55:17;154.78;;;67.10;;
41101;SDS011;26845;50.190;19.178;2022-11-20T01:57:47;143.22;;;61.02;;
41101;SDS011;26845;50.190;19.178;2022-11-20T02:00:18;149.27;;;62.85;;
41101;SDS011;26845;50.190;19.178;2022-11-20T02:02:51;146.68;;;61.48;;
41101;SDS011;26845;50.190;19.178;2022-11-20T02:05:36;154.68;;;64.90;;
41101;SDS011;26845;50.190;19.178;2022-11-20T02:08:20;139.03;;;59.38;;
41101;SDS011;26845;50.190;19.178;2022-11-20T02:10:48;134.57;;;57.00;;
41101;SDS011;26845;50.190;19.178;2022-11-20T02:13:14;147.98;;;60.28;;
41101;SDS011;26845;50.190;19.178;2022-11-20T02:16:01;142.87;;;60.38;;
41101;SDS011;26845;50.190;19.178;2022-11-20T02:18:29;132.35;;;57.23;;
41101;SDS011;26845;50.190;19.178;2022-11-20T02:20:59;130.40;;;57.13;;
41101;SDS011;26845;50.190;19.178;2022-11-20T02:29:31;128.30;;;56.77;;
41101;SDS011;26845;50.190;19.178;2022-11-20T02:32:19;148.15;;;56.85;;
41101;SDS011;26845;50.190;19.178;2022-11-20T02:34:48;143.32;;;58.95;;
41101;SDS011;26845;50.190;19.178;2022-11-20T02:37:15;139.88;;;57.60;;
41101;SDS011;26845;50.190;19.178;2022-11-20T02:39:43;135.32;;;59.25;;
41101;SDS011;26845;50.190;19.178;2022-11-20T02:44:39;122.30;;;49.30;;
41101;SDS011;26845;50.190;19.178;2022-11-20T02:47:06;130.18;;;54.58;;
41101;SDS011;26845;50.190;19.178;2022-11-20T02:49:34;133.25;;;57.23;;
41101;SDS011;26845;50.190;19.178;2022-11-20T02:52:01;138.55;;;57.75;;
41101;SDS011;26845;50.190;19.178;2022-11-20T02:54:28;127.65;;;55.52;;
41101;SDS011;26845;50.190;19.178;2022-11-20T02:56:57;129.63;;;55.38;;
41101;SDS011;26845;50.190;19.178;2022-11-20T02:59:26;116.47;;;53.23;;
41101;SDS011;26845;50.190;19.178;2022-11-20T03:01:55;113.25;;;51.28;;
41101;SDS011;26845;50.190;19.178;2022-11-20T03:04:21;124.62;;;53.87;;
41101;SDS011;26845;50.190;19.178;2022-11-20T03:06:48;118.22;;;50.70;;
41101;SDS011;26845;50.190;19.178;2022-11-20T03:09:14;114.75;;;51.98;;
41101;SDS011;26845;50.190;19.178;2022-11-20T03:11:44;130.80;;;52.53;;
41101;SDS011;26845;50.190;19.178;2022-11-20T03:14:10;124.30;;;53.70;;
41101;SDS011;26845;50.190;19.178;2022-11-20T03:16:37;122.98;;;53.23;;
41101;SDS011;26845;50.190;19.178;2022-11-20T03:19:04;125.22;;;54.25;;
41101;SDS011;26845;50.190;19.178;2022-11-20T03:21:32;120.13;;;53.80;;
41101;SDS011;26845;50.190;19.178;2022-11-20T03:24:00;127.85;;;55.30;;
41101;SDS011;26845;50.190;19.178;2022-11-20T03:26:27;119.13;;;52.08;;
41101;SDS011;26845;50.190;19.178;2022-11-20T03:28:55;127.50;;;53.13;;
41101;SDS011;26845;50.190;19.178;2022-11-20T03:31:30;120.37;;;51.83;;
41101;SDS011;26845;50.190;19.178;2022-11-20T03:33:57;118.00;;;49.67;;
41101;SDS011;26845;50.190;19.178;2022-11-20T03:36:25;113.30;;;49.80;;
41101;SDS011;26845;50.190;19.178;2022-11-20T03:38:53;118.80;;;51.45;;
41101;SDS011;26845;50.190;19.178;2022-11-20T03:41:30;123.20;;;53.73;;
41101;SDS011;26845;50.190;19.178;2022-11-20T03:44:00;122.60;;;54.18;;
41101;SDS011;26845;50.190;19.178;2022-11-20T03:46:29;117.10;;;51.65;;
41101;SDS011;26845;50.190;19.178;2022-11-20T03:48:56;118.65;;;50.85;;
41101;SDS011;26845;50.190;19.178;2022-11-20T03:51:24;122.13;;;52.95;;
41101;SDS011;26845;50.190;19.178;2022-11-20T03:53:55;120.87;;;51.80;;
41101;SDS011;26845;50.190;19.178;2022-11-20T03:56:28;120.25;;;52.93;;
41101;SDS011;26845;50.190;19.178;2022-11-20T03:58:57;117.28;;;50.63;;
41101;SDS011;26845;50.190;19.178;2022-11-20T04:01:28;111.25;;;47.27;;
41101;SDS011;26845;50.190;19.178;2022-11-20T04:03:58;116.28;;;52.08;;
41101;SDS011;26845;50.190;19.178;2022-11-20T04:06:26;116.37;;;48.68;;
41101;SDS011;26845;50.190;19.178;2022-11-20T04:09:02;153.55;;;58.65;;
41101;SDS011;26845;50.190;19.178;2022-11-20T04:11:31;134.65;;;52.58;;
41101;SDS011;26845;50.190;19.178;2022-11-20T04:14:05;127.75;;;49.80;;
41101;SDS011;26845;50.190;19.178;2022-11-20T04:16:31;137.32;;;58.28;;
41101;SDS011;26845;50.190;19.178;2022-11-20T04:21:29;120.03;;;47.13;;
41101;SDS011;26845;50.190;19.178;2022-11-20T04:23:57;125.65;;;51.18;;
41101;SDS011;26845;50.190;19.178;2022-11-20T04:26:26;117.77;;;48.23;;
41101;SDS011;26845;50.190;19.178;2022-11-20T04:28:54;118.40;;;50.35;;
41101;SDS011;26845;50.190;19.178;2022-11-20T04:31:23;118.42;;;48.87;;
41101;SDS011;26845;50.190;19.178;2022-11-20T04:33:53;118.72;;;50.15;;
41101;SDS011;26845;50.190;19.178;2022-11-20T04:36:25;129.18;;;53.48;;
41101;SDS011;26845;50.190;19.178;2022-11-20T04:38:58;121.70;;;50.05;;
41101;SDS011;26845;50.190;19.178;2022-11-20T04:41:25;128.12;;;52.88;;
41101;SDS011;26845;50.190;19.178;2022-11-20T04:43:58;116.97;;;48.90;;
41101;SDS011;26845;50.190;19.178;2022-11-20T04:46:29;123.13;;;51.80;;
41101;SDS011;26845;50.190;19.178;2022-11-20T04:48:59;124.67;;;52.85;;
41101;SDS011;26845;50.190;19.178;2022-11-20T04:51:26;121.77;;;53.25;;
41101;SDS011;26845;50.190;19.178;2022-11-20T04:53:53;135.90;;;56.58;;
41101;SDS011;26845;50.190;19.178;2022-11-20T04:56:22;137.30;;;53.38;;
41101;SDS011;26845;50.190;19.178;2022-11-20T04:58:49;128.60;;;50.67;;
41101;SDS011;26845;50.190;19.178;2022-11-20T05:01:17;121.87;;;51.63;;
41101;SDS011;26845;50.190;19.178;2022-11-20T05:03:47;113.30;;;49.75;;
41101;SDS011;26845;50.190;19.178;2022-11-20T05:06:15;129.75;;;50.75;;
41101;SDS011;26845;50.190;19.178;2022-11-20T05:08:46;124.50;;;52.15;;
41101;SDS011;26845;50.190;19.178;2022-11-20T05:11:13;139.80;;;60.85;;
41101;SDS011;26845;50.190;19.178;2022-11-20T05:13:46;133.32;;;58.80;;
41101;SDS011;26845;50.190;19.178;2022-11-20T05:16:16;130.90;;;54.70;;
41101;SDS011;26845;50.190;19.178;2022-11-20T05:18:46;129.90;;;56.90;;
41101;SDS011;26845;50.190;19.178;2022-11-20T05:21:13;124.15;;;53.65;;
41101;SDS011;26845;50.190;19.178;2022-11-20T05:23:41;122.95;;;56.83;;
41101;SDS011;26845;50.190;19.178;2022-11-20T05:26:12;120.45;;;56.68;;
41101;SDS011;26845;50.190;19.178;2022-11-20T05:28:47;117.28;;;52.55;;
41101;SDS011;26845;50.190;19.178;2022-11-20T05:31:20;118.67;;;52.80;;
41101;SDS011;26845;50.190;19.178;2022-11-20T05:33:48;120.57;;;50.65;;
41101;SDS011;26845;50.190;19.178;2022-11-20T05:36:15;122.80;;;54.77;;
41101;SDS011;26845;50.190;19.178;2022-11-20T05:38:43;126.53;;;51.23;;
41101;SDS011;26845;50.190;19.178;2022-11-20T05:41:11;116.67;;;48.87;;
41101;SDS011;26845;50.190;19.178;2022-11-20T05:43:44;121.15;;;49.40;;
41101;SDS011;26845;50.190;19.178;2022-11-20T05:46:13;101.53;;;45.52;;
41101;SDS011;26845;50.190;19.178;2022-11-20T05:48:43;115.30;;;45.55;;
41101;SDS011;26845;50.190;19.178;2022-11-20T05:51:12;101.58;;;44.98;;
41101;SDS011;26845;50.190;19.178;2022-11-20T05:53:43;114.10;;;48.48;;
41101;SDS011;26845;50.190;19.178;2022-11-20T05:56:11;115.65;;;49.25;;
41101;SDS011;26845;50.190;19.178;2022-11-20T05:58:44;115.65;;;48.20;;
41101;SDS011;26845;50.190;19.178;2022-11-20T06:03:47;101.97;;;44.55;;
41101;SDS011;26845;50.190;19.178;2022-11-20T06:06:16;111.22;;;45.38;;
41101;SDS011;26845;50.190;19.178;2022-11-20T06:08:45;126.92;;;53.45;;
41101;SDS011;26845;50.190;19.178;2022-11-20T06:11:12;118.22;;;50.98;;
41101;SDS011;26845;50.190;19.178;2022-11-20T06:13:40;122.87;;;50.98;;
41101;SDS011;26845;50.190;19.178;2022-11-20T06:16:08;114.80;;;48.70;;
41101;SDS011;26845;50.190;19.178;2022-11-20T06:18:36;109.20;;;46.13;;
41101;SDS011;26845;50.190;19.178;2022-11-20T06:21:07;116.03;;;49.88;;
41101;SDS011;26845;50.190;19.178;2022-11-20T06:23:38;111.85;;;47.05;;
41101;SDS011;26845;50.190;19.178;2022-11-20T06:26:10;118.20;;;49.13;;
41101;SDS011;26845;50.190;19.178;2022-11-20T06:28:41;111.45;;;49.08;;
41101;SDS011;26845;50.190;19.178;2022-11-20T06:31:09;112.42;;;48.92;;
41101;SDS011;26845;50.190;19.178;2022-11-20T06:33:39;116.42;;;50.78;;
41101;SDS011;26845;50.190;19.178;2022-11-20T06:36:07;113.75;;;49.55;;
41101;SDS011;26845;50.190;19.178;2022-11-20T06:38:37;121.55;;;50.95;;
41101;SDS011;26845;50.190;19.178;2022-11-20T06:41:05;100.72;;;45.73;;
41101;SDS011;26845;50.190;19.178;2022-11-20T06:43:34;112.77;;;49.03;;
41101;SDS011;26845;50.190;19.178;2022-11-20T06:46:01;126.22;;;53.65;;
41101;SDS011;26845;50.190;19.178;2022-11-20T06:48:28;130.07;;;56.88;;
41101;SDS011;26845;50.190;19.178;2022-11-20T06:50:56;145.68;;;61.55;;
41101;SDS011;26845;50.190;19.178;2022-11-20T06:53:25;144.22;;;61.48;;
41101;SDS011;26845;50.190;19.178;2022-11-20T06:55:52;155.40;;;63.73;;
41101;SDS011;26845;50.190;19.178;2022-11-20T06:58:21;138.10;;;59.90;;
41101;SDS011;26845;50.190;19.178;2022-11-20T07:00:48;166.53;;;70.42;;
41101;SDS011;26845;50.190;19.178;2022-11-20T07:03:15;158.97;;;70.40;;
41101;SDS011;26845;50.190;19.178;2022-11-20T07:05:41;152.60;;;64.62;;
41101;SDS011;26845;50.190;19.178;2022-11-20T07:08:09;146.70;;;64.62;;
41101;SDS011;26845;50.190;19.178;2022-11-20T07:10:35;133.93;;;58.78;;
41101;SDS011;26845;50.190;19.178;2022-11-20T07:13:02;137.92;;;59.67;;
41101;SDS011;26845;50.190;19.178;2022-11-20T07:15:29;135.68;;;57.95;;
41101;SDS011;26845;50.190;19.178;2022-11-20T07:17:58;126.10;;;55.78;;
41101;SDS011;26845;50.190;19.178;2022-11-20T07:20:26;124.02;;;54.67;;
41101;SDS011;26845;50.190;19.178;2022-11-20T07:22:53;116.08;;;52.78;;
41101;SDS011;26845;50.190;19.178;2022-11-20T07:25:22;114.80;;;50.92;;
41101;SDS011;26845;50.190;19.178;2022-11-20T07:27:49;104.27;;;47.67;;
41101;SDS011;26845;50.190;19.178;2022-11-20T07:30:16;110.00;;;49.25;;
41101;SDS011;26845;50.190;19.178;2022-11-20T07:32:47;102.80;;;48.70;;
41101;SDS011;26845;50.190;19.178;2022-11-20T07:35:19;119.72;;;51.45;;
41101;SDS011;26845;50.190;19.178;2022-11-20T07:37:46;108.25;;;51.50;;
41101;SDS011;26845;50.190;19.178;2022-11-20T07:40:15;103.90;;;48.75;;
41101;SDS011;26845;50.190;19.178;2022-11-20T07:42:49;112.90;;;51.95;;
41101;SDS011;26845;50.190;19.178;2022-11-20T07:45:22;120.82;;;53.90;;
41101;SDS011;26845;50.190;19.178;2022-11-20T07:47:46;106.03;;;53.75;;
41101;SDS011;26845;50.190;19.178;2022-11-20T07:50:13;122.02;;;55.73;;
41101;SDS011;26845;50.190;19.178;2022-11-20T07:52:41;113.42;;;51.95;;
41101;SDS011;26845;50.190;19.178;2022-11-20T07:55:09;109.37;;;51.45;;
41101;SDS011;26845;50.190;19.178;2022-11-20T07:57:36;114.50;;;55.98;;
41101;SDS011;26845;50.190;19.178;2022-11-20T08:00:03;116.53;;;58.73;;
41101;SDS011;26845;50.190;19.178;2022-11-20T08:02:36;126.40;;;62.85;;
41101;SDS011;26845;50.190;19.178;2022-11-20T08:05:05;123.13;;;58.05;;
41101;SDS011;26845;50.190;19.178;2022-11-20T08:07:39;114.75;;;59.95;;
41101;SDS011;26845;50.190;19.178;2022-11-20T08:10:08;115.85;;;57.80;;
41101;SDS011;26845;50.190;19.178;2022-11-20T08:12:45;112.22;;;56.88;;
41101;SDS011;26845;50.190;19.178;2022-11-20T08:15:33;114.82;;;56.00;;
41101;SDS011;26845;50.190;19.178;2022-11-20T08:18:01;116.90;;;56.55;;
41101;SDS011;26845;50.190;19.178;2022-11-20T08:20:32;130.55;;;63.25;;
41101;SDS011;26845;50.190;19.178;2022-11-20T08:23:00;137.60;;;67.67;;
41101;SDS011;26845;50.190;19.178;2022-11-20T08:25:31;142.35;;;69.10;;
41101;SDS011;26845;50.190;19.178;2022-11-20T08:28:00;143.37;;;68.80;;
41101;SDS011;26845;50.190;19.178;2022-11-20T08:30:32;128.72;;;63.42;;
41101;SDS011;26845;50.190;19.178;2022-11-20T08:33:04;126.97;;;63.63;;
41101;SDS011;26845;50.190;19.178;2022-11-20T08:35:35;131.00;;;64.17;;
41101;SDS011;26845;50.190;19.178;2022-11-20T08:38:04;130.60;;;65.32;;
41101;SDS011;26845;50.190;19.178;2022-11-20T08:40:31;136.50;;;66.25;;
41101;SDS011;26845;50.190;19.178;2022-11-20T08:42:59;130.78;;;65.90;;
41101;SDS011;26845;50.190;19.178;2022-11-20T08:45:27;147.32;;;74.25;;
41101;SDS011;26845;50.190;19.178;2022-11-20T08:47:59;167.75;;;78.55;;
41101;SDS011;26845;50.190;19.178;2022-11-20T08:50:29;195.55;;;89.20;;
41101;SDS011;26845;50.190;19.178;2022-11-20T08:53:04;183.27;;;88.67;;
41101;SDS011;26845;50.190;19.178;2022-11-20T08:55:31;214.75;;;101.53;;
41101;SDS011;26845;50.190;19.178;2022-11-20T08:58:02;199.82;;;95.80;;
41101;SDS011;26845;50.190;19.178;2022-11-20T09:00:30;213.50;;;100.47;;
41101;SDS011;26845;50.190;19.178;2022-11-20T09:02:58;204.90;;;99.42;;
41101;SDS011;26845;50.190;19.178;2022-11-20T09:05:27;184.25;;;92.33;;
41101;SDS011;26845;50.190;19.178;2022-11-20T09:07:56;177.57;;;90.32;;
41101;SDS011;26845;50.190;19.178;2022-11-20T09:10:24;181.63;;;87.70;;
41101;SDS011;26845;50.190;19.178;2022-11-20T09:12:52;183.55;;;90.60;;
41101;SDS011;26845;50.190;19.178;2022-11-20T09:15:21;178.68;;;88.55;;
41101;SDS011;26845;50.190;19.178;2022-11-20T09:17:55;176.78;;;87.88;;
41101;SDS011;26845;50.190;19.178;2022-11-20T09:20:24;176.15;;;85.30;;
41101;SDS011;26845;50.190;19.178;2022-11-20T09:22:55;165.57;;;85.00;;
41101;SDS011;26845;50.190;19.178;2022-11-20T09:25:22;155.50;;;79.60;;
41101;SDS011;26845;50.190;19.178;2022-11-20T09:27:56;158.87;;;83.85;;
41101;SDS011;26845;50.190;19.178;2022-11-20T09:30:24;163.95;;;84.40;;
41101;SDS011;26845;50.190;19.178;2022-11-20T09:32:53;159.85;;;83.62;;
41101;SDS011;26845;50.190;19.178;2022-11-20T09:35:20;164.82;;;86.10;;
41101;SDS011;26845;50.190;19.178;2022-11-20T09:37:50;154.25;;;81.10;;
41101;SDS011;26845;50.190;19.178;2022-11-20T09:40:20;154.68;;;77.37;;
41101;SDS011;26845;50.190;19.178;2022-11-20T09:46:29;152.35;;;77.92;;
41101;SDS011;26845;50.190;19.178;2022-11-20T09:48:48;146.13;;;77.27;;
41101;SDS011;26845;50.190;19.178;2022-11-20T09:54:29;144.65;;;75.67;;
41101;SDS011;26845;50.190;19.178;2022-11-20T09:57:00;138.20;;;74.00;;
41101;SDS011;26845;50.190;19.178;2022-11-20T10:00:16;123.95;;;66.62;;
41101;SDS011;26845;50.190;19.178;2022-11-20T10:05:02;110.90;;;60.73;;
41101;SDS011;26845;50.190;19.178;2022-11-20T10:10:17;121.28;;;62.88;;
41101;SDS011;26845;50.190;19.178;2022-11-20T10:15:50;95.45;;;51.63;;
41101;SDS011;26845;50.190;19.178;2022-11-20T10:30:15;81.75;;;45.80;;
41101;SDS011;26845;50.190;19.178;2022-11-20T10:32:50;79.07;;;43.80;;
41101;SDS011;26845;50.190;19.178;2022-11-20T10:35:24;78.42;;;44.45;;
41101;SDS011;26845;50.190;19.178;2022-11-20T10:38:19;75.20;;;41.98;;
41101;SDS011;26845;50.190;19.178;2022-11-20T10:40:53;74.12;;;42.70;;
41101;SDS011;26845;50.190;19.178;2022-11-20T10:43:32;68.37;;;39.48;;
41101;SDS011;26845;50.190;19.178;2022-11-20T10:46:01;72.78;;;41.37;;
41101;SDS011;26845;50.190;19.178;2022-11-20T10:48:38;67.70;;;40.17;;
41101;SDS011;26845;50.190;19.178;2022-11-20T10:54:12;76.67;;;41.68;;
41101;SDS011;26845;50.190;19.178;2022-11-20T10:56:53;70.55;;;40.60;;
41101;SDS011;26845;50.190;19.178;2022-11-20T10:59:47;67.08;;;39.98;;
41101;SDS011;26845;50.190;19.178;2022-11-20T11:02:31;64.58;;;37.08;;
41101;SDS011;26845;50.190;19.178;2022-11-20T11:05:12;65.42;;;37.58;;
41101;SDS011;26845;50.190;19.178;2022-11-20T11:07:53;67.67;;;36.20;;
41101;SDS011;26845;50.190;19.178;2022-11-20T11:13:07;59.13;;;36.20;;
41101;SDS011;26845;50.190;19.178;2022-11-20T11:15:45;60.25;;;35.88;;
41101;SDS011;26845;50.190;19.178;2022-11-20T11:18:22;62.23;;;36.13;;
41101;SDS011;26845;50.190;19.178;2022-11-20T11:20:59;58.45;;;34.58;;
41101;SDS011;26845;50.190;19.178;2022-11-20T11:26:21;62.95;;;34.75;;
41101;SDS011;26845;50.190;19.178;2022-11-20T11:29:00;60.67;;;33.83;;
41101;SDS011;26845;50.190;19.178;2022-11-20T11:31:30;53.17;;;33.38;;
41101;SDS011;26845;50.190;19.178;2022-11-20T11:36:39;60.60;;;34.30;;
41101;SDS011;26845;50.190;19.178;2022-11-20T11:39:11;57.58;;;31.45;;
41101;SDS011;26845;50.190;19.178;2022-11-20T11:41:41;61.35;;;33.18;;
41101;SDS011;26845;50.190;19.178;2022-11-20T11:44:21;52.20;;;31.20;;
41101;SDS011;26845;50.190;19.178;2022-11-20T11:47:19;58.15;;;33.95;;
41101;SDS011;26845;50.190;19.178;2022-11-20T11:49:49;53.80;;;30.85;;
41101;SDS011;26845;50.190;19.178;2022-11-20T11:52:28;57.80;;;31.30;;
41101;SDS011;26845;50.190;19.178;2022-11-20T11:55:01;53.75;;;32.25;;
41101;SDS011;26845;50.190;19.178;2022-11-20T12:00:19;58.68;;;31.20;;
41101;SDS011;26845;50.190;19.178;2022-11-20T12:05:39;59.40;;;31.60;;
41101;SDS011;26845;50.190;19.178;2022-11-20T12:08:17;56.92;;;32.45;;
41101;SDS011;26845;50.190;19.178;2022-11-20T12:11:16;66.15;;;33.63;;
41101;SDS011;26845;50.190;19.178;2022-11-20T12:16:28;61.80;;;31.82;;
41101;SDS011;26845;50.190;19.178;2022-11-20T12:19:04;68.02;;;35.35;;
41101;SDS011;26845;50.190;19.178;2022-11-20T12:27:55;60.45;;;33.02;;
41101;SDS011;26845;50.190;19.178;2022-11-20T12:30:47;62.78;;;32.75;;
41101;SDS011;26845;50.190;19.178;2022-11-20T12:33:47;58.15;;;31.35;;
41101;SDS011;26845;50.190;19.178;2022-11-20T12:39:34;53.20;;;29.72;;
41101;SDS011;26845;50.190;19.178;2022-11-20T12:45:19;53.23;;;29.45;;
41101;SDS011;26845;50.190;19.178;2022-11-20T13:00:26;48.20;;;28.07;;
41101;SDS011;26845;50.190;19.178;2022-11-20T13:08:47;54.13;;;29.60;;
41101;SDS011;26845;50.190;19.178;2022-11-20T13:14:30;49.83;;;29.72;;
41101;SDS011;26845;50.190;19.178;2022-11-20T13:19:52;50.33;;;31.60;;
41101;SDS011;26845;50.190;19.178;2022-11-20T13:22:29;53.63;;;30.82;;
41101;SDS011;26845;50.190;19.178;2022-11-20T13:25:24;53.65;;;32.23;;
41101;SDS011;26845;50.190;19.178;2022-11-20T13:28:26;56.75;;;33.15;;
41101;SDS011;26845;50.190;19.178;2022-11-20T13:30:30;57.35;;;32.45;;
41101;SDS011;26845;50.190;19.178;2022-11-20T13:33:20;50.48;;;30.15;;
41101;SDS011;26845;50.190;19.178;2022-11-20T13:36:03;53.73;;;31.00;;
41101;SDS011;26845;50.190;19.178;2022-11-20T13:38:43;51.70;;;30.62;;
41101;SDS011;26845;50.190;19.178;2022-11-20T13:41:22;51.42;;;31.35;;
41101;SDS011;26845;50.190;19.178;2022-11-20T13:46:51;48.17;;;28.67;;
41101;SDS011;26845;50.190;19.178;2022-11-20T13:52:08;50.33;;;28.92;;
41101;SDS011;26845;50.190;19.178;2022-11-20T14:00:55;48.40;;;29.02;;
41101;SDS011;26845;50.190;19.178;2022-11-20T14:03:49;45.88;;;26.85;;
41101;SDS011;26845;50.190;19.178;2022-11-20T14:08:59;46.25;;;27.40;;
41101;SDS011;26845;50.190;19.178;2022-11-20T14:11:27;45.38;;;27.20;;
41101;SDS011;26845;50.190;19.178;2022-11-20T14:14:01;48.83;;;28.75;;
41101;SDS011;26845;50.190;19.178;2022-11-20T14:16:32;42.35;;;25.60;;
41101;SDS011;26845;50.190;19.178;2022-11-20T14:19:23;44.45;;;27.55;;
41101;SDS011;26845;50.190;19.178;2022-11-20T14:22:06;46.00;;;27.80;;
41101;SDS011;26845;50.190;19.178;2022-11-20T14:27:37;48.73;;;28.07;;
41101;SDS011;26845;50.190;19.178;2022-11-20T14:30:14;47.08;;;26.05;;
41101;SDS011;26845;50.190;19.178;2022-11-20T14:32:48;48.80;;;27.00;;
41101;SDS011;26845;50.190;19.178;2022-11-20T14:37:56;49.27;;;26.75;;
41101;SDS011;26845;50.190;19.178;2022-11-20T14:40:27;47.93;;;26.37;;
41101;SDS011;26845;50.190;19.178;2022-11-20T14:43:01;48.63;;;26.52;;
41101;SDS011;26845;50.190;19.178;2022-11-20T14:46:08;43.52;;;26.05;;
41101;SDS011;26845;50.190;19.178;2022-11-20T14:51:38;40.52;;;23.42;;
41101;SDS011;26845;50.190;19.178;2022-11-20T14:54:12;41.23;;;24.35;;
41101;SDS011;26845;50.190;19.178;2022-11-20T14:56:55;46.85;;;27.80;;
41101;SDS011;26845;50.190;19.178;2022-11-20T14:59:34;47.15;;;27.17;;
41101;SDS011;26845;50.190;19.178;2022-11-20T15:01:57;43.45;;;25.05;;
41101;SDS011;26845;50.190;19.178;2022-11-20T15:04:30;44.75;;;25.80;;
41101;SDS011;26845;50.190;19.178;2022-11-20T15:07:00;49.25;;;30.35;;
41101;SDS011;26845;50.190;19.178;2022-11-20T15:09:26;45.55;;;26.65;;
41101;SDS011;26845;50.190;19.178;2022-11-20T15:14:24;55.10;;;31.35;;
41101;SDS011;26845;50.190;19.178;2022-11-20T15:16:54;57.62;;;30.92;;
41101;SDS011;26845;50.190;19.178;2022-11-20T15:19:22;49.50;;;27.70;;
41101;SDS011;26845;50.190;19.178;2022-11-20T15:21:51;60.90;;;35.03;;
41101;SDS011;26845;50.190;19.178;2022-11-20T15:24:21;56.05;;;30.92;;
41101;SDS011;26845;50.190;19.178;2022-11-20T15:26:50;52.73;;;30.47;;
41101;SDS011;26845;50.190;19.178;2022-11-20T15:29:17;56.33;;;30.82;;
41101;SDS011;26845;50.190;19.178;2022-11-20T15:31:45;58.15;;;32.60;;
41101;SDS011;26845;50.190;19.178;2022-11-20T15:34:12;55.23;;;32.83;;
41101;SDS011;26845;50.190;19.178;2022-11-20T15:36:41;55.12;;;30.45;;
41101;SDS011;26845;50.190;19.178;2022-11-20T15:39:10;54.40;;;29.80;;
41101;SDS011;26845;50.190;19.178;2022-11-20T15:41:37;62.48;;;34.73;;
41101;SDS011;26845;50.190;19.178;2022-11-20T15:44:07;64.40;;;34.48;;
41101;SDS011;26845;50.190;19.178;2022-11-20T15:46:36;64.70;;;34.08;;
41101;SDS011;26845;50.190;19.178;2022-11-20T15:49:15;61.88;;;33.58;;
41101;SDS011;26845;50.190;19.178;2022-11-20T15:51:46;56.45;;;31.57;;
41101;SDS011;26845;50.190;19.178;2022-11-20T15:54:15;64.90;;;35.30;;
41101;SDS011;26845;50.190;19.178;2022-11-20T15:56:47;73.70;;;40.40;;
41101;SDS011;26845;50.190;19.178;2022-11-20T15:59:17;67.22;;;36.70;;
41101;SDS011;26845;50.190;19.178;2022-11-20T16:01:45;70.08;;;36.65;;
41101;SDS011;26845;50.190;19.178;2022-11-20T16:04:12;72.00;;;37.33;;
41101;SDS011;26845;50.190;19.178;2022-11-20T16:06:41;73.60;;;39.23;;
41101;SDS011;26845;50.190;19.178;2022-11-20T16:09:08;74.53;;;39.18;;
41101;SDS011;26845;50.190;19.178;2022-11-20T16:11:35;73.10;;;40.78;;
41101;SDS011;26845;50.190;19.178;2022-11-20T16:14:03;73.12;;;40.43;;
41101;SDS011;26845;50.190;19.178;2022-11-20T16:16:50;73.57;;;39.40;;
41101;SDS011;26845;50.190;19.178;2022-11-20T16:19:17;71.57;;;39.53;;
41101;SDS011;26845;50.190;19.178;2022-11-20T16:21:44;71.57;;;38.88;;
41101;SDS011;26845;50.190;19.178;2022-11-20T16:24:12;69.53;;;39.67;;
41101;SDS011;26845;50.190;19.178;2022-11-20T16:26:40;72.70;;;39.88;;
41101;SDS011;26845;50.190;19.178;2022-11-20T16:29:07;68.85;;;38.08;;
41101;SDS011;26845;50.190;19.178;2022-11-20T16:31:34;71.45;;;37.42;;